Latest Weather Observations for Moorabbin Airport

IDV60901

Issued at 8:45 am EST Tuesday 29 July 2014 (issued every 10 minutes, with the page automatically refreshed every 10 minutes)

About weather observations | Map of Melbourne area stations | Latest observations for Melbourne area | Other Formats
Station Details ID: 086077 Name: MOORABBIN AIRPORT Lat: -37.98 Lon: 145.10 Height: 12.1 m
Data from the previous 72 hours. | See also: Recent months at Moorabbin Airport
Date/Time
EST
Tmp

°C
App
Tmp
°C
Dew
Point
°C
Rel
Hum
%
Delta-T

°C
Wind Press
QNH
hPa
Press
MSL
hPa
Rain
since
9 am
mm
Dir
 
Spd
km/h
Gust
km/h
Spd
kts
Gust
kts
29/08:30am 11.9 4.5 6.8 71 2.4 N 35 48 19 26 1009.3 - 0.0
29/08:00am 11.9 4.1 6.6 70 2.5 N 37 54 20 29 1009.5 - 0.0
29/07:30am 11.7 4.9 6.8 72 2.3 N 32 43 17 23 1009.7 - 0.0
29/07:00am 11.6 4.6 6.7 72 2.3 N 33 46 18 25 1009.3 - 0.0
29/06:30am 11.7 3.9 6.8 72 2.3 N 37 56 20 30 1009.0 - 0.0
29/06:25am 11.7 3.9 6.8 72 2.3 N 37 56 20 30 1008.7 - 0.0
29/06:00am 11.7 3.2 6.8 72 2.3 N 41 52 22 28 1008.8 1008.7 0.0
29/05:31am 11.8 4.4 6.9 72 2.3 N 35 54 19 29 1008.6 - 0.0
29/05:30am 11.8 4.1 6.9 72 2.3 N 37 54 20 29 1008.5 - 0.0
29/05:04am 11.9 4.1 6.8 71 2.4 N 37 56 20 30 1008.7 - 0.0
29/05:00am 12.0 3.9 6.9 71 2.4 N 39 56 21 30 1008.6 - 0.0
29/04:30am 12.2 4.5 7.1 71 2.5 N 37 52 20 28 1008.8 - 0.0
29/04:00am 12.3 5.4 7.2 71 2.5 N 33 44 18 24 1009.4 - 0.0
29/03:30am 12.5 5.6 7.2 70 2.6 N 33 50 18 27 1009.6 - 0.0
29/03:00am 12.5 5.6 7.4 71 2.5 N 33 44 18 24 1009.5 1009.4 0.0
29/02:30am 12.3 5.6 7.2 71 2.5 N 32 43 17 23 1010.0 - 0.0
29/02:00am 12.2 5.8 7.1 71 2.5 N 30 37 16 20 1010.8 - 0.0
29/01:30am 12.0 5.6 6.9 71 2.4 N 30 41 16 22 1011.1 - 0.0
29/01:00am 12.1 5.3 7.0 71 2.4 N 32 39 17 21 1011.3 - 0.0
29/12:30am 12.3 5.5 7.0 70 2.5 N 32 41 17 22 1011.8 - 0.0
29/12:00am 12.8 6.9 7.3 69 2.7 N 28 39 15 21 1012.3 1012.2 0.0
 
Date/Time
EST
Tmp

°C
App
Tmp
°C
Dew
Point
°C
Rel
Hum
%
Delta-T

°C
Wind Press
QNH
hPa
Press
MSL
hPa
Rain
since
9 am
mm
Dir
 
Spd
km/h
Gust
km/h
Spd
kts
Gust
kts
28/11:30pm 13.1 6.7 7.1 67 2.9 N 30 39 16 21 1012.5 - 0.0
28/11:00pm 13.3 7.7 7.3 67 2.9 N 26 37 14 20 1012.6 - 0.0
28/10:30pm 13.2 6.4 7.0 66 3.0 N 32 44 17 24 1012.7 - 0.0
28/10:00pm 13.1 6.3 7.1 67 2.9 N 32 43 17 23 1012.6 - 0.0
28/09:30pm 13.2 7.2 7.2 67 2.9 N 28 37 15 20 1012.4 - 0.0
28/09:00pm 13.5 6.8 7.5 67 2.9 N 32 43 17 23 1012.5 1012.4 0.0
28/08:30pm 13.4 7.5 7.4 67 2.9 N 28 44 15 24 1012.7 - 0.0
28/08:00pm 13.7 7.8 7.5 66 3.0 N 28 37 15 20 1012.6 - 0.0
28/07:30pm 13.7 7.8 7.5 66 3.0 N 28 39 15 21 1012.2 - 0.0
28/07:00pm 13.6 7.7 7.6 67 2.9 N 28 39 15 21 1012.1 - 0.0
28/06:30pm 13.4 7.9 7.4 67 2.9 N 26 33 14 18 1012.3 - 0.0
28/06:00pm 13.4 8.2 7.4 67 2.9 N 24 35 13 19 1012.5 1012.4 0.0
28/05:30pm 14.3 9.6 7.6 64 3.3 N 22 30 12 16 1012.2 - 0.0
28/05:00pm 15.2 10.4 7.5 60 3.8 N 22 39 12 21 1012.3 - 0.0
28/04:30pm 15.5 9.6 7.5 59 4.0 N 28 37 15 20 1012.3 - 0.0
28/04:01pm 15.7 9.0 7.5 58 4.1 N 32 50 17 27 1012.2 - 0.0
28/04:00pm 15.6 8.7 7.4 58 4.1 N 33 50 18 27 1012.2 - 0.0
28/03:52pm 15.8 9.4 7.0 56 4.3 N 30 50 16 27 1011.8 - 0.0
28/03:30pm 16.0 8.7 7.2 56 4.4 N 35 52 19 28 1011.2 - 0.0
28/03:27pm 16.0 9.1 7.2 56 4.4 N 33 52 18 28 1011.3 - 0.0
28/03:00pm 16.3 9.3 7.0 54 4.6 N 33 46 18 25 1011.4 1011.3 0.0
28/02:30pm 16.4 9.5 7.1 54 4.6 N 33 44 18 24 1012.1 - 0.0
28/02:00pm 17.0 10.2 7.1 52 4.9 N 32 41 17 22 1012.3 - 0.0
28/01:30pm 17.4 11.1 7.5 52 5.0 N 30 43 16 23 1012.6 - 0.0
28/01:00pm 16.3 9.8 6.4 52 4.8 N 30 43 16 23 1013.2 - 0.0
28/12:30pm 16.4 10.0 6.8 53 4.7 N 30 39 16 21 1013.7 - 0.0
28/12:00pm 15.1 8.5 6.1 55 4.3 N 30 43 16 23 1014.1 1014.0 0.0
28/11:30am 14.6 7.4 5.7 55 4.2 N 33 48 18 26 1014.5 - 0.0
28/11:11am 14.9 7.8 5.4 53 4.5 N 32 50 17 27 1014.7 - 0.0
28/11:00am 14.7 7.5 6.0 56 4.2 N 33 46 18 25 1014.9 - 0.0
28/10:53am 14.5 7.3 5.8 56 4.1 N 33 52 18 28 1015.0 - 0.0
28/10:30am 14.5 7.0 6.1 57 4.0 N 35 50 19 27 1015.2 - 0.0
28/10:00am 13.9 6.7 5.8 58 3.8 N 33 44 18 24 1015.2 - 0.0
28/09:33am 12.8 5.4 5.2 60 3.5 N 33 52 18 28 1015.4 - 0.0
28/09:30am 12.8 5.0 5.0 59 3.6 N 35 52 19 28 1015.4 - 0.0
28/09:00am 12.5 6.1 5.2 61 3.4 N 28 46 15 25 1015.8 1015.7 0.0
28/08:53am 12.6 6.2 5.1 60 3.5 N 28 46 15 25 1015.8 - 0.0
28/08:30am 11.3 6.7 5.4 67 2.7 N 19 24 10 13 1016.0 - 0.0
28/08:00am 11.1 5.5 5.4 68 2.6 N 24 32 13 17 1015.8 - 0.0
28/07:30am 10.9 4.5 5.0 67 2.7 N 28 35 15 19 1015.7 - 0.0
28/07:00am 11.0 5.3 5.1 67 2.7 N 24 35 13 19 1015.9 - 0.0
28/06:30am 10.4 5.1 5.2 70 2.4 N 22 32 12 17 1015.8 - 0.0
28/06:00am 10.8 5.2 5.3 69 2.5 N 24 33 13 18 1015.9 1015.8 0.0
28/05:30am 10.9 5.4 5.7 70 2.4 N 24 30 13 16 1016.2 - 0.0
28/05:00am 11.1 5.2 5.8 70 2.5 N 26 35 14 19 1016.3 - 0.0
28/04:30am 10.5 5.4 6.1 74 2.0 N 22 30 12 16 1016.4 - 0.0
28/04:00am 10.1 5.6 6.3 77 1.8 N 19 26 10 14 1016.5 - 0.0
28/03:30am 9.9 5.2 6.2 78 1.7 N 20 30 11 16 1016.7 - 0.0
28/03:00am 10.4 5.4 6.4 76 1.9 N 22 28 12 15 1017.0 1016.9 0.0
28/02:30am 10.9 5.5 6.3 73 2.2 N 24 35 13 19 1017.3 - 0.0
28/02:00am 11.2 5.5 6.7 74 2.1 N 26 39 14 21 1017.3 - 0.0
28/01:30am 10.9 4.5 6.8 76 1.9 N 30 37 16 20 1017.5 - 0.0
28/01:00am 11.0 5.0 6.9 76 1.9 N 28 41 15 22 1017.7 - 0.0
28/12:30am 11.8 5.8 7.1 73 2.3 N 28 37 15 20 1018.0 - 0.0
28/12:00am 11.9 6.3 7.0 72 2.3 N 26 37 14 20 1018.4 1018.3 0.0
 
Date/Time
EST
Tmp

°C
App
Tmp
°C
Dew
Point
°C
Rel
Hum
%
Delta-T

°C
Wind Press
QNH
hPa
Press
MSL
hPa
Rain
since
9 am
mm
Dir
 
Spd
km/h
Gust
km/h
Spd
kts
Gust
kts
27/11:30pm 12.4 6.1 7.5 72 2.4 N 30 41 16 22 1018.5 - 0.0
27/11:00pm 12.4 6.5 7.7 73 2.3 N 28 41 15 22 1019.0 - 0.0
27/10:30pm 12.4 6.2 7.9 74 2.2 N 30 41 16 22 1019.4 - 0.0
27/10:00pm 12.2 6.0 7.9 75 2.1 N 30 39 16 21 1019.8 - 0.0
27/09:30pm 12.6 6.1 8.3 75 2.1 N 32 41 17 22 1019.8 - 0.0
27/09:00pm 12.6 6.5 8.1 74 2.2 N 30 43 16 23 1019.9 1019.8 0.0
27/08:30pm 12.4 5.8 7.9 74 2.2 N 32 39 17 21 1020.1 - 0.0
27/08:00pm 12.2 7.9 7.7 74 2.2 N 20 30 11 16 1020.4 - 0.0
27/07:30pm 12.7 8.3 7.6 71 2.5 NNW 20 28 11 15 1020.7 - 0.0
27/07:00pm 12.8 8.9 7.3 69 2.7 NNW 17 22 9 12 1020.5 - 0.0
27/06:30pm 13.0 8.2 7.2 68 2.8 N 22 32 12 17 1020.0 - 0.0
27/06:00pm 13.1 8.7 7.5 69 2.7 N 20 30 11 16 1019.8 1019.7 0.0
27/05:30pm 13.6 8.9 7.6 67 2.9 N 22 26 12 14 1020.0 - 0.0
27/05:00pm 14.3 10.5 7.4 63 3.4 N 17 24 9 13 1020.5 - 0.0
27/04:30pm 14.9 11.7 6.7 58 4.0 NNW 13 19 7 10 1020.3 - 0.0
27/04:00pm 14.9 10.6 7.2 60 3.8 NW 19 26 10 14 1020.8 - 0.0
27/03:30pm 14.8 9.6 7.4 61 3.7 N 24 32 13 17 1020.6 - 0.0
27/03:00pm 15.1 10.3 7.2 59 3.9 NNW 22 33 12 18 1020.4 1020.3 0.0
27/02:30pm 15.3 10.2 7.6 60 3.8 N 24 39 13 21 1020.1 - 0.0
27/02:00pm 15.5 10.9 8.0 61 3.8 NNW 22 32 12 17 1020.3 - 0.0
27/01:30pm 15.3 10.9 8.8 65 3.3 N 22 32 12 17 1020.7 - 0.0
27/01:00pm 14.9 9.2 8.4 65 3.3 N 28 39 15 21 1021.3 - 0.0
27/12:30pm 14.9 8.8 8.4 65 3.3 N 30 44 16 24 1021.8 - 0.0
27/12:00pm 14.6 9.5 7.6 63 3.4 N 24 37 13 20 1022.6 1022.5 0.0
27/11:30am 14.4 9.4 8.1 66 3.1 N 24 32 13 17 1023.0 - 0.0
27/11:00am 14.0 9.1 8.4 69 2.8 N 24 33 13 18 1023.7 - 0.0
27/10:30am 13.3 8.3 8.2 71 2.5 N 24 28 13 15 1024.3 - 0.0
27/10:00am 12.5 8.2 7.8 73 2.3 N 20 28 11 15 1024.6 - 0.0
27/09:30am 11.7 7.6 8.0 78 1.8 N 19 24 10 13 1024.7 - 0.0
27/09:00am 10.5 6.3 7.6 82 1.4 N 19 24 10 13 1024.7 1024.6 1.4
27/08:30am 9.4 5.5 7.2 86 1.0 N 17 20 9 11 1024.8 - 1.4
27/08:00am 8.7 4.7 6.8 88 0.9 N 17 20 9 11 1024.7 - 1.4
27/07:30am 8.0 4.0 6.5 90 0.7 N 17 20 9 11 1024.6 - 1.4
27/07:00am 7.9 4.6 6.5 91 0.6 N 13 17 7 9 1024.4 - 1.4
27/06:30am 7.3 4.3 6.1 92 0.5 N 11 13 6 7 1024.3 - 1.4
27/06:00am 7.7 5.2 6.6 93 0.5 N 9 15 5 8 1024.3 1024.2 1.4
27/05:30am 7.6 5.5 6.5 93 0.5 N 7 9 4 5 1024.2 - 1.4
27/05:00am 7.8 4.9 6.4 91 0.6 N 11 13 6 7 1024.5 - 1.4
27/04:30am 8.2 5.4 6.8 91 0.6 N 11 13 6 7 1024.4 - 1.4
27/04:00am 8.4 5.9 6.7 89 0.8 N 9 11 5 6 1024.6 - 1.2
27/03:30am 8.4 5.9 6.5 88 0.9 N 9 11 5 6 1024.7 - 1.2
27/03:00am 9.4 6.9 6.7 83 1.3 NNW 9 13 5 7 1025.0 1024.9 1.2
27/02:30am 10.0 7.5 6.7 80 1.5 NNW 9 11 5 6 1025.0 - 1.2
27/02:00am 10.8 9.0 7.1 78 1.8 NW 6 9 3 5 1025.1 - 1.2
27/01:30am 10.9 9.0 7.4 79 1.7 NNW 7 11 4 6 1025.2 - 1.2
27/01:00am 11.1 9.3 7.8 80 1.6 NW 7 11 4 6 1025.2 - 1.2
27/12:30am 11.1 8.9 8.0 81 1.5 NW 9 17 5 9 1025.4 - 1.2
27/12:00am 11.2 8.7 8.2 82 1.5 NW 11 17 6 9 1025.4 1025.3 1.2
 
Date/Time
EST
Tmp

°C
App
Tmp
°C
Dew
Point
°C
Rel
Hum
%
Delta-T

°C
Wind Press
QNH
hPa
Press
MSL
hPa
Rain
since
9 am
mm
Dir
 
Spd
km/h
Gust
km/h
Spd
kts
Gust
kts
26/11:30pm 11.3 8.8 8.3 82 1.5 WNW 11 20 6 11 1025.5 - 1.2
26/11:00pm 11.4 9.0 8.8 84 1.3 WNW 11 15 6 8 1025.5 - 1.2
26/10:30pm 11.5 9.2 9.1 85 1.2 WNW 11 17 6 9 1025.5 - 1.2
26/10:00pm 11.7 8.7 9.3 85 1.2 W 15 24 8 13 1025.5 - 1.2
26/09:30pm 12.0 9.5 9.7 86 1.2 W 13 20 7 11 1025.4 - 1.2
26/09:00pm 12.1 9.4 10.2 88 1.0 W 15 22 8 12 1025.3 1025.2 1.2
26/08:30pm 12.1 9.7 10.2 88 1.0 W 13 20 7 11 1025.1 - 1.2
26/08:00pm 12.0 9.6 10.1 88 1.0 WNW 13 19 7 10 1024.8 - 1.2
26/07:30pm 11.8 9.8 10.0 89 0.9 WNW 11 17 6 9 1024.7 - 1.2
26/07:00pm 11.8 9.7 9.9 88 1.0 WNW 11 19 6 10 1024.5 - 1.2
26/06:30pm 11.9 9.9 10.0 88 1.0 WNW 11 17 6 9 1024.4 - 1.2
26/06:00pm 12.0 10.1 10.6 91 0.7 W 11 19 6 10 1024.1 1024.0 1.2
26/05:30pm 11.9 8.9 10.5 91 0.7 W 17 24 9 13 1023.9 - 1.2
26/05:00pm 11.9 8.2 10.3 90 0.8 W 20 30 11 16 1023.6 - 1.2
26/04:30pm 11.8 8.2 10.7 93 0.6 W 20 35 11 19 1023.4 - 1.2
26/04:28pm 11.9 8.4 10.8 93 0.6 W 20 35 11 19 1023.4 - 1.2
26/04:09pm 12.0 8.4 10.7 92 0.7 W 20 30 11 16 1023.3 - 1.2
26/04:05pm 12.0 8.4 10.6 91 0.7 W 20 30 11 16 1023.3 - 1.0
26/04:00pm 12.1 8.1 10.5 90 0.8 W 22 39 12 21 1023.3 - 0.8
26/03:50pm 12.2 8.2 10.4 89 0.9 W 22 32 12 17 1023.2 - 0.8
26/03:30pm 13.4 11.1 10.6 83 1.5 W 13 20 7 11 1023.0 - 0.6
26/03:00pm 13.3 11.1 10.8 85 1.3 WNW 13 20 7 11 1022.6 1022.5 0.6
26/02:30pm 13.2 10.5 10.4 83 1.5 WNW 15 22 8 12 1022.4 - 0.6
26/02:00pm 13.2 10.1 10.4 83 1.5 W 17 30 9 16 1022.3 - 0.6
26/01:30pm 13.4 10.3 10.4 82 1.6 W 17 24 9 13 1022.3 - 0.6
26/01:00pm 13.3 10.6 10.3 82 1.6 WNW 15 26 8 14 1022.4 - 0.6
26/12:30pm 13.0 10.8 10.7 86 1.2 WNW 13 24 7 13 1022.7 - 0.6
26/12:00pm 12.7 9.8 9.7 82 1.5 WNW 15 20 8 11 1023.0 1022.9 0.4
26/11:30am 13.2 10.3 9.5 78 1.9 WNW 15 24 8 13 1023.1 - 0.0
26/11:00am 13.5 10.6 9.6 77 2.0 WNW 15 24 8 13 1023.3 - 0.0
26/10:30am 13.0 9.6 9.3 78 1.9 NW 17 24 9 13 1023.4 - 0.0
26/10:00am 12.4 9.4 9.4 82 1.5 NW 15 20 8 11 1023.4 - 0.0
26/09:30am 12.7 9.3 9.2 79 1.8 WNW 17 26 9 14 1023.2 - 0.0
26/09:00am 12.5 9.9 9.3 81 1.6 NW 13 20 7 11 1022.9 1022.8 0.8

Latest Capital City Observations: Canberra | Sydney | Melbourne | Brisbane | Adelaide | Perth | Hobart | Darwin

Other Formats:

Comma delimited format used in spreadsheet applications
http://www.bom.gov.au/fwo/IDV60901/IDV60901.94870.axf

JavaScript Object Notation format (JSON) in row-major order
http://www.bom.gov.au/fwo/IDV60901/IDV60901.94870.json